Time;durP1;ratioP1;P1;durP2;ratioP2;P2;SDS_P1;SDS_P2;PMS_P1;PMS_P2;Temp;Humidity;BMP_temperature;BMP_pressure;BME280_temperature;BME280_humidity;BME280_pressure;Samples;Min_cycle;Max_cycle;Signal;HPM_P1;HPM_P2
2022/05/27 00:01:20;;;;;;;10.80;3.00;;;;;;;14.47;75.03;101945.72;5013602;28;20034;-80
2022/05/27 00:03:47;;;;;;;15.38;3.17;;;;;;;14.48;74.68;101945.69;5031109;28;20101;-79
2022/05/27 00:06:13;;;;;;;10.88;3.22;;;;;;;14.43;74.98;101936.03;5031569;28;20136;-79
2022/05/27 00:08:39;;;;;;;9.30;2.92;;;;;;;14.41;74.81;101942.28;5029738;28;20069;-78
2022/05/27 00:11:05;;;;;;;8.50;2.63;;;;;;;14.38;75.54;101941.44;5031341;28;20072;-79
2022/05/27 00:13:31;;;;;;;7.32;2.55;;;;;;;14.38;75.39;101937.00;5030748;28;20053;-80
2022/05/27 00:15:56;;;;;;;9.27;2.85;;;;;;;14.38;75.67;101933.44;5030996;28;20516;-79
2022/05/27 00:18:22;;;;;;;12.38;2.92;;;;;;;14.41;75.65;101931.63;5013009;28;20057;-80
2022/05/27 00:20:48;;;;;;;6.93;2.45;;;;;;;14.37;75.56;101926.38;5012993;28;20045;-79
2022/05/27 00:23:15;;;;;;;8.30;2.67;;;;;;;14.36;75.61;101922.81;5018858;28;20116;-79
2022/05/27 00:25:41;;;;;;;10.13;3.10;;;;;;;14.36;76.16;101932.59;5027523;28;20040;-80
2022/05/27 00:28:07;;;;;;;10.88;2.85;;;;;;;14.34;75.95;101930.00;5050750;28;20378;-79
2022/05/27 00:30:34;;;;;;;12.25;3.78;;;;;;;14.35;76.11;101930.84;5050638;28;20135;-79
2022/05/27 00:32:59;;;;;;;11.20;3.40;;;;;;;14.34;76.14;101934.41;5050586;28;20091;-80
2022/05/27 00:35:25;;;;;;;12.55;3.10;;;;;;;14.34;76.61;101939.75;5016102;28;20041;-79
2022/05/27 00:37:51;;;;;;;12.27;3.33;;;;;;;14.34;76.21;101932.66;5032425;28;20036;-79
2022/05/27 00:40:18;;;;;;;11.00;3.40;;;;;;;14.38;76.26;101929.00;5049052;28;20041;-79
2022/05/27 00:42:46;;;;;;;10.68;3.45;;;;;;;14.34;76.55;101926.41;5030129;28;20481;-79
2022/05/27 00:45:23;;;;;;;13.02;3.45;;;;;;;14.33;76.91;101932.66;5030612;28;20034;-79
2022/05/27 00:47:52;;;;;;;12.35;3.45;;;;;;;14.32;77.04;101931.81;5030490;28;20064;-79
2022/05/27 00:50:20;;;;;;;13.07;3.92;;;;;;;14.34;77.36;101930.00;5030408;28;20412;-79
2022/05/27 00:52:48;;;;;;;9.95;3.45;;;;;;;14.30;77.88;101919.41;5028774;28;20216;-79
2022/05/27 00:55:20;;;;;;;11.35;3.90;;;;;;;14.32;78.14;101922.94;5012396;28;20112;-79
2022/05/27 00:58:09;;;;;;;16.75;3.80;;;;;;;14.31;78.51;101924.69;5030226;28;20037;-79
2022/05/27 01:00:34;;;;;;;10.68;3.65;;;;;;;14.23;80.42;101923.97;5006075;28;20151;-79
2022/05/27 01:03:01;;;;;;;14.05;3.97;;;;;;;14.18;81.52;101924.06;5031009;28;20033;-82
2022/05/27 01:05:27;;;;;;;18.23;4.95;;;;;;;14.12;81.69;101917.97;5034179;28;20081;-82
2022/05/27 01:07:56;;;;;;;14.95;4.28;;;;;;;14.10;81.82;101914.47;5020780;28;20037;-82
2022/05/27 01:10:24;;;;;;;14.05;4.38;;;;;;;14.04;81.91;101914.59;5053876;28;20045;-82
2022/05/27 01:12:59;;;;;;;15.35;4.07;;;;;;;14.02;82.93;101922.63;5036671;28;20036;-83
2022/05/27 01:16:17;;;;;;;14.30;4.40;;;;;;;14.00;82.22;101910.25;5053637;28;20037;-83
2022/05/27 01:22:11;;;;;;;15.55;4.30;;;;;;;13.90;83.89;101921.06;5055612;28;20048;-85
2022/05/27 01:25:13;;;;;;;12.60;4.75;;;;;;;13.83;85.04;101922.09;5037677;28;20325;-84
2022/05/27 01:27:51;;;;;;;13.63;4.72;;;;;;;13.82;85.97;101914.97;5036326;28;20043;-83
2022/05/27 01:30:40;;;;;;;13.32;4.72;;;;;;;13.73;86.37;101910.72;5036530;28;20102;-86
2022/05/27 01:33:28;;;;;;;17.30;4.85;;;;;;;13.73;86.75;101913.38;5036828;28;20040;-83
2022/05/27 01:36:23;;;;;;;15.90;4.95;;;;;;;13.64;87.85;101913.53;5037030;28;20041;-83
2022/05/27 01:39:02;;;;;;;14.32;4.72;;;;;;;13.61;88.13;101910.94;4990833;28;20044;-88
2022/05/27 01:41:43;;;;;;;18.02;5.60;;;;;;;13.58;88.66;101908.31;5039095;28;20520;-83
2022/05/27 01:44:25;;;;;;;15.32;5.13;;;;;;;13.53;89.28;101911.06;5056560;28;20059;-83
2022/05/27 01:46:50;;;;;;;12.50;5.40;;;;;;;13.51;89.90;101909.34;5074540;28;20473;-83
2022/05/27 01:49:47;;;;;;;10.15;4.82;;;;;;;13.50;89.99;101916.44;5039662;28;20024;-81
2022/05/27 01:52:24;;;;;;;18.40;5.35;;;;;;;13.46;90.63;101909.41;5056824;28;20033;-84
2022/05/27 01:55:01;;;;;;;19.13;5.30;;;;;;;13.45;91.45;101909.41;5074379;28;20182;-85
2022/05/27 01:57:45;;;;;;;19.85;5.40;;;;;;;13.41;91.71;101915.72;5073050;28;20033;-84
2022/05/27 02:00:12;;;;;;;15.90;5.55;;;;;;;13.41;91.88;101911.28;5056249;28;20083;-88
2022/05/27 02:02:44;;;;;;;15.52;5.05;;;;;;;13.38;91.55;101918.41;5039531;28;20067;-86
2022/05/27 02:05:20;;;;;;;19.30;6.10;;;;;;;13.35;92.63;101935.31;5039271;28;20052;-85
2022/05/27 02:07:54;;;;;;;18.23;5.95;;;;;;;13.35;92.62;101943.28;5056142;28;20182;-85
2022/05/27 02:10:27;;;;;;;16.95;6.22;;;;;;;13.37;93.29;101930.84;5056244;28;20071;-85
2022/05/27 02:13:02;;;;;;;17.23;4.63;;;;;;;13.39;92.90;101945.00;5039779;28;20035;-85
2022/05/27 02:15:39;;;;;;;9.85;3.90;;;;;;;13.36;91.37;101945.06;5072693;28;20110;-85
2022/05/27 02:18:23;;;;;;;10.18;3.17;;;;;;;13.31;90.38;101942.47;5074513;28;20032;-85
2022/05/27 02:20:59;;;;;;;6.47;2.40;;;;;;;13.27;90.07;101943.41;5074073;28;20040;-86
2022/05/27 02:23:33;;;;;;;8.27;2.60;;;;;;;13.23;89.47;101938.13;5043703;28;20041;-84
2022/05/27 02:26:01;;;;;;;6.70;2.45;;;;;;;13.18;89.23;101934.66;5036025;28;20393;-86
2022/05/27 02:28:36;;;;;;;4.85;2.28;;;;;;;13.09;89.59;101925.91;5036264;28;20063;-84
2022/05/27 02:31:16;;;;;;;7.63;2.40;;;;;;;13.02;89.43;101932.22;5020893;28;20033;-86
2022/05/27 02:36:41;;;;;;;8.52;2.55;;;;;;;12.99;91.69;101918.13;5036015;28;20076;-86
2022/05/27 02:39:08;;;;;;;5.40;2.90;;;;;;;12.94;90.92;101912.84;5035433;28;20441;-85
2022/05/27 02:41:57;;;;;;;8.50;2.75;;;;;;;12.96;90.60;101918.13;5018503;28;20128;-85
2022/05/27 02:44:32;;;;;;;9.32;2.97;;;;;;;12.87;91.69;101905.88;5035443;28;20037;-85
2022/05/27 02:47:07;;;;;;;7.53;2.50;;;;;;;12.90;90.88;101912.00;5019169;28;20507;-84
2022/05/27 02:49:45;;;;;;;7.20;2.55;;;;;;;12.85;91.13;101920.97;5036004;28;20021;-84
2022/05/27 02:52:56;;;;;;;9.07;2.65;;;;;;;12.86;90.76;101915.63;5018896;28;20539;-86
2022/05/27 02:55:39;;;;;;;9.63;2.93;;;;;;;12.80;91.35;101922.81;5052354;28;20479;-84
2022/05/27 02:58:05;;;;;;;7.18;2.30;;;;;;;12.74;91.79;101923.78;5053491;28;20143;-87
2022/05/27 03:00:33;;;;;;;8.13;2.70;;;;;;;12.71;92.16;101921.16;5019323;28;20033;-84
2022/05/27 03:03:00;;;;;;;4.55;2.20;;;;;;;12.69;91.33;101904.34;5052152;28;20021;-86
2022/05/27 03:05:31;;;;;;;6.10;2.25;;;;;;;12.62;91.77;101910.66;5051984;28;20140;-84
2022/05/27 03:08:03;;;;;;;5.60;2.60;;;;;;;12.61;91.98;101916.84;5051817;28;20037;-84
2022/05/27 03:10:37;;;;;;;7.43;2.72;;;;;;;12.62;92.98;101914.19;5053027;28;20029;-84
2022/05/27 03:13:18;;;;;;;5.78;2.45;;;;;;;12.64;94.21;101927.47;5018322;28;20123;-84
2022/05/27 03:15:56;;;;;;;11.98;3.10;;;;;;;12.65;94.28;101922.09;5035069;28;20098;-84
2022/05/27 03:18:40;;;;;;;6.15;2.55;;;;;;;12.68;95.40;101914.13;5034870;28;20048;-83
2022/05/27 03:21:20;;;;;;;6.57;2.95;;;;;;;12.70;95.92;101916.72;5018298;28;20045;-84
2022/05/27 03:24:10;;;;;;;7.82;3.15;;;;;;;12.71;95.55;101905.22;5066336;28;20048;-84
2022/05/27 03:27:00;;;;;;;5.65;3.17;;;;;;;12.70;96.10;101900.78;5050297;28;20037;-82
2022/05/27 03:29:47;;;;;;;7.38;3.22;;;;;;;12.72;95.83;101892.81;5045895;28;20038;-83
2022/05/27 03:32:25;;;;;;;6.40;3.08;;;;;;;12.73;95.72;101892.75;5053908;28;20462;-82
2022/05/27 03:34:59;;;;;;;7.43;2.70;;;;;;;12.72;95.15;101895.47;5037250;28;20150;-82
2022/05/27 03:37:38;;;;;;;6.82;2.40;;;;;;;12.75;94.80;101903.38;5054361;28;20044;-82
2022/05/27 03:40:03;;;;;;;8.02;3.20;;;;;;;12.75;94.66;101904.25;5072044;28;20342;-82
2022/05/27 03:42:31;;;;;;;6.75;2.70;;;;;;;12.73;94.89;101908.69;5053805;28;20033;-82
2022/05/27 03:45:06;;;;;;;8.77;3.00;;;;;;;12.75;94.80;101904.25;5072393;28;20051;-82
2022/05/27 03:47:33;;;;;;;6.53;2.70;;;;;;;12.75;93.82;101901.59;5053766;28;20445;-83
2022/05/27 03:49:58;;;;;;;8.70;3.15;;;;;;;12.74;94.54;101905.16;5054305;28;20513;-82
2022/05/27 03:52:27;;;;;;;9.77;3.28;;;;;;;12.74;94.52;101905.16;5035778;28;20052;-82
2022/05/27 03:54:53;;;;;;;7.75;2.53;;;;;;;12.75;93.82;101901.59;5034251;28;20438;-83
2022/05/27 03:57:18;;;;;;;7.10;2.85;;;;;;;12.76;94.22;101906.03;5017534;28;20056;-82
2022/05/27 03:59:44;;;;;;;6.30;2.67;;;;;;;12.77;94.08;101907.78;5017344;28;20127;-82
2022/05/27 04:02:10;;;;;;;9.35;3.00;;;;;;;12.77;94.22;101891.81;5033797;28;20048;-82
2022/05/27 04:04:35;;;;;;;9.25;2.70;;;;;;;12.82;94.30;101907.72;5021897;28;20072;-82
2022/05/27 04:07:01;;;;;;;9.77;2.97;;;;;;;12.77;94.09;101894.47;5013908;28;20144;-82
2022/05/27 04:09:26;;;;;;;8.23;3.40;;;;;;;12.83;93.48;101902.38;5031779;28;20044;-82
2022/05/27 04:11:53;;;;;;;7.28;2.92;;;;;;;12.86;93.49;101905.00;5030205;28;20045;-82
2022/05/27 04:14:19;;;;;;;6.60;3.35;;;;;;;12.87;94.02;101912.06;5031355;28;20128;-82
2022/05/27 04:16:44;;;;;;;9.48;3.53;;;;;;;12.89;94.02;101906.72;5013800;28;20109;-82
2022/05/27 04:19:10;;;;;;;6.97;3.03;;;;;;;12.89;94.11;101907.59;5030210;28;20087;-82
2022/05/27 04:21:37;;;;;;;6.85;3.25;;;;;;;12.91;94.85;101919.09;5030171;28;20048;-82
2022/05/27 04:24:03;;;;;;;9.07;3.97;;;;;;;12.91;95.38;101920.88;5029156;28;20489;-82
2022/05/27 04:26:28;;;;;;;8.45;3.60;;;;;;;12.93;95.33;101920.84;5013408;28;20156;-82
2022/05/27 04:28:54;;;;;;;10.52;4.20;;;;;;;12.94;95.85;101918.16;5005655;28;20037;-82
2022/05/27 04:31:19;;;;;;;10.13;4.10;;;;;;;13.00;96.07;101918.06;5016895;28;20120;-82
2022/05/27 04:33:45;;;;;;;9.40;4.47;;;;;;;13.04;96.23;101922.44;5016816;28;20570;-82
2022/05/27 04:36:11;;;;;;;15.70;4.95;;;;;;;13.08;96.59;101913.53;5016492;28;20376;-82
2022/05/27 04:38:38;;;;;;;10.85;4.60;;;;;;;13.12;96.94;101920.53;5016756;28;20048;-82
2022/05/27 04:41:04;;;;;;;10.15;4.55;;;;;;;13.19;96.94;101928.44;5024658;28;20075;-82
2022/05/27 04:43:30;;;;;;;9.48;5.45;;;;;;;13.25;97.77;101926.59;4996785;28;20038;-82
2022/05/27 04:45:56;;;;;;;11.20;5.55;;;;;;;13.31;97.57;101923.84;5013625;28;20147;-81
2022/05/27 04:48:21;;;;;;;15.18;5.93;;;;;;;13.37;97.52;101917.53;5013449;28;20203;-81
2022/05/27 04:50:47;;;;;;;17.42;6.80;;;;;;;13.43;98.37;101922.78;4997084;28;20034;-81
2022/05/27 04:53:13;;;;;;;20.10;6.95;;;;;;;13.53;99.09;101926.16;4981035;28;20475;-81
2022/05/27 04:55:40;;;;;;;17.02;6.65;;;;;;;13.60;98.43;101924.25;4997045;28;20028;-82
2022/05/27 04:58:07;;;;;;;17.95;7.55;;;;;;;13.65;98.50;101923.28;5013368;28;20458;-82
2022/05/27 05:00:36;;;;;;;19.08;7.10;;;;;;;13.68;98.93;101920.56;5013135;28;20033;-81
2022/05/27 05:03:03;;;;;;;20.25;7.82;;;;;;;13.75;98.70;101927.53;5013169;28;20041;-82
2022/05/27 05:05:31;;;;;;;17.23;7.22;;;;;;;13.80;98.83;101924.81;5032899;28;20155;-82
2022/05/27 05:08:06;;;;;;;23.13;6.97;;;;;;;13.82;99.15;101927.41;5031131;28;20770;-82
2022/05/27 05:10:32;;;;;;;33.85;7.68;;;;;;;13.86;98.93;101935.31;5013101;28;20394;-83
2022/05/27 05:12:57;;;;;;;16.42;7.60;;;;;;;13.88;98.36;101936.19;4996861;28;20045;-82
2022/05/27 05:15:25;;;;;;;21.75;7.22;;;;;;;13.89;98.30;101937.06;4980540;28;20040;-82
2022/05/27 05:17:51;;;;;;;22.00;7.72;;;;;;;13.92;98.76;101939.66;5029575;28;20099;-82
2022/05/27 05:20:20;;;;;;;21.27;7.07;;;;;;;13.97;98.38;101940.44;4996785;28;20136;-82
2022/05/27 05:22:46;;;;;;;19.67;6.97;;;;;;;13.99;98.51;101935.97;5030714;28;20438;-82
2022/05/27 05:25:12;;;;;;;24.65;6.90;;;;;;;14.07;98.02;101949.16;5021394;28;20049;-82
2022/05/27 05:27:40;;;;;;;22.83;6.63;;;;;;;14.04;95.47;101946.53;4996812;28;20041;-82
2022/05/27 05:30:08;;;;;;;18.90;5.82;;;;;;;14.04;95.86;101944.75;5032359;28;20108;-83
2022/05/27 05:32:34;;;;;;;18.85;5.85;;;;;;;14.08;95.72;101950.91;5032892;28;20362;-82
2022/05/27 05:34:59;;;;;;;15.93;5.22;;;;;;;14.06;94.57;101950.06;5016730;28;20037;-82
2022/05/27 05:37:26;;;;;;;17.73;5.10;;;;;;;14.03;94.45;101963.44;5016616;28;20051;-82
2022/05/27 05:39:52;;;;;;;17.80;5.28;;;;;;;14.03;94.46;101966.13;5000113;28;20041;-82
2022/05/27 05:42:18;;;;;;;17.33;5.30;;;;;;;14.10;94.90;101965.97;5016535;28;20041;-82
2022/05/27 05:44:45;;;;;;;17.92;5.53;;;;;;;14.15;94.50;101973.88;5032860;28;20060;-82
2022/05/27 05:47:10;;;;;;;16.25;4.47;;;;;;;14.11;91.10;101969.50;5016321;28;20475;-82
2022/05/27 05:49:36;;;;;;;20.95;4.88;;;;;;;14.16;91.64;101968.50;5015465;28;20131;-84
2022/05/27 05:52:02;;;;;;;23.27;5.03;;;;;;;14.22;92.09;101977.28;5001314;28;20075;-82
2022/05/27 05:54:28;;;;;;;17.40;4.85;;;;;;;14.23;90.50;101971.06;5002967;28;20037;-81
2022/05/27 05:56:55;;;;;;;15.07;4.10;;;;;;;14.14;88.64;101965.00;5035403;28;20083;-82
2022/05/27 05:59:22;;;;;;;14.98;3.80;;;;;;;14.11;88.84;101975.69;5018512;28;20077;-81
2022/05/27 06:01:48;;;;;;;20.80;3.88;;;;;;;14.07;87.30;101984.69;5016208;28;20033;-82
2022/05/27 06:04:14;;;;;;;11.77;3.95;;;;;;;13.96;85.84;101976.84;5005926;28;20056;-83
2022/05/27 06:06:40;;;;;;;17.30;3.67;;;;;;;13.96;85.51;101978.66;5003305;28;20057;-83
2022/05/27 06:09:07;;;;;;;17.38;3.58;;;;;;;13.95;86.07;101987.56;5052318;28;20041;-82
2022/05/27 06:11:36;;;;;;;15.75;3.60;;;;;;;13.94;85.94;101989.31;5052692;28;20066;-81
2022/05/27 06:14:01;;;;;;;17.70;3.95;;;;;;;13.94;85.32;101991.09;5055266;28;20033;-81
2022/05/27 06:16:27;;;;;;;13.95;3.22;;;;;;;13.93;85.57;101984.91;5022195;28;20036;-82
2022/05/27 06:18:52;;;;;;;14.02;3.30;;;;;;;13.90;84.18;101981.44;5055117;28;20080;-82
2022/05/27 06:21:18;;;;;;;16.13;3.05;;;;;;;13.97;84.39;101988.38;5039703;28;20095;-86
2022/05/27 06:23:44;;;;;;;11.68;2.88;;;;;;;14.07;85.43;101981.09;5023353;28;20120;-85
2022/05/27 06:26:12;;;;;;;10.70;3.33;;;;;;;14.11;84.30;101991.69;5040080;28;20044;-86
2022/05/27 06:34:26;;;;;;;9.70;2.80;;;;;;;14.30;83.32;101997.56;4996798;28;20377;-85
2022/05/27 06:36:56;;;;;;;12.65;2.63;;;;;;;14.33;80.23;102001.94;5019313;28;20082;-86
2022/05/27 06:39:23;;;;;;;12.33;2.73;;;;;;;14.38;81.61;101990.28;5019557;28;20037;-85
2022/05/27 06:41:48;;;;;;;10.57;2.72;;;;;;;14.47;80.04;101989.25;5003280;28;20390;-87
2022/05/27 06:44:14;;;;;;;18.25;3.70;;;;;;;14.51;78.69;101985.59;5035896;28;20081;-85
2022/05/27 06:46:39;;;;;;;13.68;3.15;;;;;;;14.58;80.05;101989.94;5019391;28;20059;-84
2022/05/27 06:49:06;;;;;;;8.38;2.25;;;;;;;14.68;80.58;101998.63;5019271;28;20053;-84
2022/05/27 06:51:34;;;;;;;9.98;2.58;;;;;;;14.74;76.93;101993.19;5045985;28;20036;-88
2022/05/27 06:54:05;;;;;;;13.75;3.15;;;;;;;14.75;77.28;102002.03;5063640;28;20106;-85
2022/05/27 06:56:31;;;;;;;;;;;;;;;14.77;77.64;101992.22;5052402;28;20041;-84
2022/05/27 06:58:56;;;;;;;7.53;2.63;;;;;;;14.67;75.34;101999.53;5034885;28;20007;-85
2022/05/27 07:01:22;;;;;;;15.00;2.78;;;;;;;14.70;73.87;101990.59;5034540;28;20396;-83
2022/05/27 07:03:47;;;;;;;14.15;2.88;;;;;;;14.73;73.29;101991.41;5016898;28;20082;-82
2022/05/27 07:06:13;;;;;;;12.57;2.95;;;;;;;14.86;75.01;102000.03;4997905;28;20436;-83
2022/05/27 07:08:39;;;;;;;13.70;3.13;;;;;;;14.97;74.34;101998.00;5020744;28;20068;-83
2022/05/27 07:11:05;;;;;;;13.50;2.60;;;;;;;14.92;72.85;102005.22;5032957;28;20589;-83
2022/05/27 07:13:31;;;;;;;10.23;2.83;;;;;;;14.80;71.48;102006.38;5035745;28;20061;-84
2022/05/27 07:15:56;;;;;;;9.68;2.28;;;;;;;14.68;72.43;102005.75;5037803;28;20044;-82
2022/05/27 07:18:23;;;;;;;10.02;2.55;;;;;;;14.63;72.82;102004.03;5016900;28;20489;-82
2022/05/27 07:20:48;;;;;;;15.88;2.70;;;;;;;14.62;74.86;102004.97;5030795;28;20047;-82
2022/05/27 07:23:14;;;;;;;10.63;3.00;;;;;;;14.65;73.63;102006.69;5018847;28;20385;-81
2022/05/27 07:25:40;;;;;;;13.85;2.38;;;;;;;14.65;72.93;102004.03;5015262;28;20068;-83
2022/05/27 07:28:07;;;;;;;10.90;2.53;;;;;;;14.79;74.02;102003.75;5019185;28;20550;-81
2022/05/27 07:30:36;;;;;;;13.88;3.25;;;;;;;14.94;71.90;102014.09;5018787;28;20070;-83
2022/05/27 07:33:02;;;;;;;8.15;2.72;;;;;;;14.97;72.33;102019.34;5031108;28;20502;-80
2022/05/27 07:35:28;;;;;;;12.57;2.60;;;;;;;15.06;72.50;102023.63;5030375;28;20152;-81
2022/05/27 07:37:53;;;;;;;14.90;2.85;;;;;;;15.28;73.45;102016.00;5013265;28;20064;-80
2022/05/27 07:40:21;;;;;;;11.52;2.55;;;;;;;15.47;72.65;102016.44;5032003;28;20033;-80
2022/05/27 07:42:48;;;;;;;12.10;2.67;;;;;;;15.61;73.35;102019.69;5030377;28;20436;-81
2022/05/27 07:45:16;;;;;;;11.93;2.92;;;;;;;15.68;72.10;102026.63;5031130;28;20079;-81
2022/05/27 07:47:41;;;;;;;9.82;2.28;;;;;;;15.59;67.15;102031.31;5033451;28;20266;-82
2022/05/27 07:50:09;;;;;;;8.15;2.67;;;;;;;15.58;67.32;102035.78;5000096;28;20149;-81
2022/05/27 07:52:36;;;;;;;12.48;2.60;;;;;;;15.65;65.41;102036.50;5028411;28;20107;-82
2022/05/27 07:55:03;;;;;;;14.93;3.63;;;;;;;15.65;66.87;102029.38;5013436;28;20060;-81
2022/05/27 07:57:29;;;;;;;9.63;2.83;;;;;;;15.74;66.90;102038.09;5031236;28;20029;-81
2022/05/27 07:59:54;;;;;;;7.65;2.63;;;;;;;15.66;67.75;102039.13;5013493;28;20052;-81
2022/05/27 08:02:23;;;;;;;17.63;3.10;;;;;;;15.76;69.95;102030.94;5013267;28;20073;-82
2022/05/27 08:04:50;;;;;;;13.02;2.92;;;;;;;15.78;68.08;102030.00;4980324;28;20041;-81
2022/05/27 08:07:15;;;;;;;10.88;2.90;;;;;;;15.79;67.58;102031.72;5031094;28;20034;-83
2022/05/27 08:09:41;;;;;;;12.88;3.05;;;;;;;15.84;64.90;102037.84;5013361;28;20057;-81
2022/05/27 08:12:07;;;;;;;42.65;5.40;;;;;;;15.87;65.25;102045.78;5030966;28;20037;-81
2022/05/27 08:14:33;;;;;;;18.02;3.55;;;;;;;16.04;64.40;102033.78;5012692;28;20048;-81
2022/05/27 08:16:59;;;;;;;24.08;4.13;;;;;;;16.17;61.74;102040.59;4996881;28;20029;-81
2022/05/27 08:19:25;;;;;;;10.63;2.90;;;;;;;16.28;62.81;102034.94;5030616;28;20034;-80
2022/05/27 08:21:51;;;;;;;82.13;8.68;;;;;;;16.45;64.33;102039.84;4995851;28;20041;-81
2022/05/27 08:24:16;;;;;;;17.88;2.92;;;;;;;16.53;61.19;102043.19;5007616;28;20075;-81
2022/05/27 08:26:42;;;;;;;14.52;3.10;;;;;;;16.63;62.17;102042.00;5013349;28;20041;-80
2022/05/27 08:29:09;;;;;;;14.25;2.97;;;;;;;16.60;63.39;102050.13;5042408;28;20029;-80
2022/05/27 08:31:35;;;;;;;12.82;3.00;;;;;;;16.46;61.20;102053.16;5050659;28;20037;-82
2022/05/27 08:39:32;;;;;;;32.10;5.03;;;;;;;16.11;62.57;102048.75;5032367;28;20592;-80
2022/05/27 08:42:30;;;;;;;14.25;3.33;;;;;;;16.37;63.81;102050.75;4996713;28;20041;-80
2022/05/27 08:45:11;;;;;;;24.70;4.18;;;;;;;16.66;62.29;102044.59;5012810;28;20111;-80
2022/05/27 08:47:51;;;;;;;9.25;2.60;;;;;;;16.88;62.07;102052.03;5030833;28;20040;-81
2022/05/27 08:50:39;;;;;;;17.52;3.40;;;;;;;16.97;59.63;102054.44;5012531;28;20385;-80
2022/05/27 08:53:17;;;;;;;14.52;3.20;;;;;;;16.88;58.31;102047.56;5021004;28;20081;-81
2022/05/27 09:01:31;;;;;;;12.88;3.03;;;;;;;16.01;56.84;102061.47;5028887;28;20037;-82
2022/05/27 09:04:13;;;;;;;18.45;3.95;;;;;;;16.05;58.75;102062.28;5030209;28;20116;-80
2022/05/27 09:06:48;;;;;;;14.05;3.20;;;;;;;16.41;57.91;102057.75;5029076;28;20068;-82
2022/05/27 09:09:25;;;;;;;13.32;3.30;;;;;;;16.71;56.01;102057.81;5030394;28;20069;-82
2022/05/27 09:12:08;;;;;;;15.43;3.60;;;;;;;16.99;56.73;102066.00;5012686;28;20080;-81
2022/05/27 09:14:37;;;;;;;19.20;3.42;;;;;;;17.15;54.08;102069.09;5028899;28;20045;-82
2022/05/27 09:17:02;;;;;;;12.00;3.20;;;;;;;17.00;54.36;102062.38;5030415;28;20039;-81
2022/05/27 09:19:46;;;;;;;9.70;2.90;;;;;;;17.00;55.08;102069.53;5028600;28;20037;-82
2022/05/27 09:22:25;;;;;;;9.45;3.10;;;;;;;16.97;54.94;102071.38;5029842;28;20026;-81
2022/05/27 09:25:15;;;;;;;10.48;3.10;;;;;;;16.95;54.99;102072.34;5005673;28;20032;-81
2022/05/27 09:28:11;;;;;;;8.17;2.60;;;;;;;16.99;55.63;102074.03;5053480;28;20090;-82
2022/05/27 09:30:38;;;;;;;13.00;3.55;;;;;;;16.94;53.86;102082.19;5032883;28;20148;-82
2022/05/27 09:33:07;;;;;;;13.30;3.20;;;;;;;16.86;53.38;102089.53;4999713;28;20103;-82
2022/05/27 09:35:45;;;;;;;18.35;3.35;;;;;;;16.81;53.33;102077.22;5015878;28;20319;-81
2022/05/27 09:38:31;;;;;;;19.48;3.30;;;;;;;17.02;53.60;102083.75;5033743;28;20045;-80
2022/05/27 09:41:12;;;;;;;10.23;2.85;;;;;;;17.30;53.14;102084.69;5045165;28;20119;-81
2022/05/27 09:43:40;;;;;;;11.80;2.92;;;;;;;17.35;53.01;102096.13;5053677;28;20519;-81
2022/05/27 09:46:10;;;;;;;12.02;3.17;;;;;;;17.38;53.16;102092.47;5035546;28;20029;-81
2022/05/27 09:48:36;;;;;;;16.50;3.70;;;;;;;17.47;53.66;102089.53;5053715;28;20395;-81
2022/05/27 09:51:07;;;;;;;12.13;2.90;;;;;;;17.41;52.85;102097.75;5018866;28;20811;-81
2022/05/27 09:53:41;;;;;;;10.43;2.65;;;;;;;17.42;51.40;102100.38;5052162;28;20067;-81
2022/05/27 09:56:11;;;;;;;16.67;3.30;;;;;;;17.55;51.70;102090.16;5053376;28;20116;-81
2022/05/27 09:58:43;;;;;;;10.27;3.10;;;;;;;17.65;48.46;102088.06;5052354;28;20110;-80
2022/05/27 10:01:22;;;;;;;10.77;3.13;;;;;;;17.94;50.71;102089.84;5035401;28;20037;-81
2022/05/27 10:04:03;;;;;;;14.55;3.63;;;;;;;17.69;51.03;102091.53;5053054;28;20036;-80
2022/05/27 10:06:32;;;;;;;20.52;3.17;;;;;;;17.67;48.94;102099.63;5035438;28;20044;-81
2022/05/27 10:09:00;;;;;;;7.45;2.25;;;;;;;17.75;46.63;102100.25;5035157;28;20125;-82
2022/05/27 10:11:48;;;;;;;10.73;2.85;;;;;;;18.03;47.57;102099.41;5035012;28;20036;-81
2022/05/27 10:14:31;;;;;;;13.18;3.13;;;;;;;17.84;45.63;102108.03;5053349;28;20115;-80
2022/05/27 10:17:27;;;;;;;11.25;2.65;;;;;;;17.70;45.50;102096.84;5053301;28;20057;-81
2022/05/27 10:20:14;;;;;;;11.30;3.47;;;;;;;17.79;46.56;102106.41;5052799;28;20389;-80
2022/05/27 10:22:39;;;;;;;14.60;3.63;;;;;;;17.67;44.20;102096.94;5029064;28;20037;-80
2022/05/27 10:25:11;;;;;;;11.85;2.78;;;;;;;17.69;45.19;102092.41;5010803;28;20044;-81
2022/05/27 10:27:38;;;;;;;15.57;3.13;;;;;;;17.74;45.25;102101.19;5053043;28;20036;-82
2022/05/27 10:30:23;;;;;;;12.13;3.05;;;;;;;17.67;45.66;102094.25;5015109;28;20368;-81
2022/05/27 10:32:48;;;;;;;11.63;2.88;;;;;;;17.56;45.15;102099.09;5015127;28;20041;-80
2022/05/27 10:35:25;;;;;;;11.43;3.50;;;;;;;17.40;46.19;102104.88;5032757;28;20048;-81
2022/05/27 10:38:12;;;;;;;13.05;3.10;;;;;;;17.33;46.23;102094.41;5014661;28;20049;-80
2022/05/27 10:41:14;;;;;;;12.40;2.70;;;;;;;17.45;46.17;102087.81;5039128;28;20420;-80
2022/05/27 10:44:06;;;;;;;14.90;3.03;;;;;;;17.88;46.16;102100.78;5034636;28;20044;-82
2022/05/27 10:46:47;;;;;;;13.05;3.33;;;;;;;17.72;44.39;102100.34;5034674;28;20483;-80
2022/05/27 10:49:28;;;;;;;13.27;3.53;;;;;;;17.50;46.61;102099.25;5053090;28;20029;-81
2022/05/27 10:52:05;;;;;;;14.23;2.92;;;;;;;17.33;46.88;102103.34;5034472;28;20048;-81
2022/05/27 10:55:09;;;;;;;13.95;3.40;;;;;;;17.45;46.33;102104.75;5034487;28;20052;-81
2022/05/27 11:03:57;;;;;;;12.63;3.20;;;;;;;18.13;46.23;102108.88;5031182;28;20072;-79
2022/05/27 11:06:40;;;;;;;14.43;3.05;;;;;;;18.50;42.61;102107.63;5032518;28;20034;-79
2022/05/27 11:09:21;;;;;;;10.18;2.95;;;;;;;18.62;42.99;102120.63;5030879;28;20069;-81
2022/05/27 11:11:53;;;;;;;;;;;;;;;18.68;41.26;102106.09;5032762;28;20048;-80
2022/05/27 11:17:43;;;;;;;11.05;2.70;;;;;;;18.42;42.15;102115.06;5031851;28;20037;-80
2022/05/27 11:20:24;;;;;;;21.00;3.80;;;;;;;18.00;43.35;102124.50;5030611;28;20120;-81
2022/05/27 11:23:03;;;;;;;12.45;3.20;;;;;;;17.81;44.22;102116.16;5035455;28;20045;-80
2022/05/27 11:26:17;;;;;;;11.55;2.80;;;;;;;18.03;42.63;102099.41;5034026;28;20122;-81
2022/05/27 11:28:59;;;;;;;14.98;3.30;;;;;;;18.26;41.74;102115.59;4978859;28;20169;-80
2022/05/27 11:32:01;;;;;;;14.13;2.83;;;;;;;18.42;42.04;102118.63;5030529;28;20137;-80
2022/05/27 11:34:50;;;;;;;17.40;3.00;;;;;;;18.70;42.55;102105.13;5017669;28;20106;-80
2022/05/27 11:37:49;;;;;;;14.30;3.25;;;;;;;18.74;40.76;102116.59;5020559;28;20044;-80
2022/05/27 11:40:28;;;;;;;13.88;3.30;;;;;;;18.80;40.96;102129.84;5051415;28;20061;-80
2022/05/27 11:43:04;;;;;;;13.95;3.13;;;;;;;18.77;41.54;102123.69;5037424;28;20079;-81
2022/05/27 11:45:31;;;;;;;11.55;3.08;;;;;;;18.55;40.55;102135.19;5051401;28;20032;-81
2022/05/27 11:48:03;;;;;;;16.00;4.13;;;;;;;18.39;40.08;102115.16;5041632;28;20041;-81
2022/05/27 11:50:54;;;;;;;8.15;2.80;;;;;;;18.14;40.14;102140.13;5052090;28;20056;-80
2022/05/27 11:53:34;;;;;;;;;;;;;;;18.26;40.64;102136.16;5051209;28;20086;-81
2022/05/27 11:56:18;;;;;;;10.13;2.88;;;;;;;18.44;41.48;102131.97;5033740;28;19916;-80
2022/05/27 11:59:25;;;;;;;14.10;2.85;;;;;;;18.27;41.39;102129.84;5031592;28;20433;-81
2022/05/27 12:01:56;;;;;;;12.20;2.80;;;;;;;18.18;41.73;102139.09;5042026;28;20068;-80
2022/05/27 12:04:44;;;;;;;10.45;2.65;;;;;;;18.26;40.60;102141.53;5047741;28;20064;-81
2022/05/27 12:07:32;;;;;;;13.55;3.00;;;;;;;18.36;40.21;102132.25;5047549;28;20036;-81
2022/05/27 12:10:24;;;;;;;15.38;2.67;;;;;;;18.51;38.77;102128.16;5034642;28;20037;-81
2022/05/27 12:12:55;;;;;;;9.18;2.47;;;;;;;18.39;39.78;102131.25;5014259;28;20049;-80
2022/05/27 12:15:30;;;;;;;8.85;2.50;;;;;;;18.58;40.77;102129.69;5051220;28;20453;-81
2022/05/27 12:17:58;;;;;;;8.82;2.92;;;;;;;18.68;39.73;102115.03;5050028;28;20051;-80